Terminal Aerodrome Forecast
Issued by NWS

Home | Current Version | Previous Version | Text Only | Print | Product List | Glossary On
Versions: 1 2 3 4 5 6 7 8 9 10 11 12 13 14 15 16 17 18 19 20 21 22 23 24 25 26 27 28 29
000
FTUS44 KHGX 261909 AAB
TAFUTS
TAF AMD
KUTS 261909Z 2619/2718 17010G15KT 6SM BR VCSH BKN017 OVC021
     FM270300 14007KT 5SM BR BKN010
     FM271500 27006KT 4SM -DZ BR SCT004 BKN010=

USA.gov is the U.S. government's official web portal to all federal, state and local government web resources and services.